createdAt,value
2019-03-02T00:02:12.834Z,20.47
2019-03-02T00:04:41.949Z,22.90
2019-03-02T00:07:11.235Z,20.60
2019-03-02T00:09:38.153Z,22.00
2019-03-02T00:12:05.460Z,25.27
2019-03-02T00:14:32.690Z,21.23
2019-03-02T00:16:59.841Z,20.37
2019-03-02T00:19:27.090Z,26.87
2019-03-02T00:21:54.191Z,21.17
2019-03-02T00:24:21.351Z,22.73
2019-03-02T00:26:48.579Z,21.60
2019-03-02T00:29:15.971Z,22.57
2019-03-02T00:31:43.130Z,22.43
2019-03-02T00:34:10.331Z,24.17
2019-03-02T00:36:37.571Z,23.80
2019-03-02T00:39:06.211Z,23.70
2019-03-02T00:41:33.811Z,25.27
2019-03-02T00:44:03.839Z,25.90
2019-03-02T00:46:30.151Z,24.90
2019-03-02T00:48:57.311Z,24.63
2019-03-02T00:51:24.478Z,24.63
2019-03-02T00:53:51.593Z,26.63
2019-03-02T00:56:18.711Z,23.37
2019-03-02T00:58:45.873Z,26.50
2019-03-02T01:01:13.011Z,27.37
2019-03-02T01:03:40.297Z,27.47
2019-03-02T01:06:09.109Z,26.90
2019-03-02T01:08:36.971Z,25.90
2019-03-02T01:11:04.330Z,19.80
2019-03-02T01:13:31.850Z,20.43
2019-03-02T01:15:58.968Z,21.00
2019-03-02T01:18:26.129Z,17.00
2019-03-02T01:20:53.230Z,18.70
2019-03-02T01:23:23.859Z,15.37
2019-03-02T01:25:49.753Z,16.57
2019-03-02T01:28:17.071Z,14.73
2019-03-02T01:30:44.250Z,13.80
2019-03-02T01:33:11.352Z,14.63
2019-03-02T01:35:38.431Z,14.80
2019-03-02T01:38:05.752Z,14.80
2019-03-02T01:40:33.118Z,18.00
2019-03-02T01:43:01.971Z,15.27
2019-03-02T01:45:29.211Z,15.97
2019-03-02T01:47:56.390Z,15.90
2019-03-02T01:50:23.591Z,17.20
2019-03-02T01:52:50.690Z,20.80
2019-03-02T01:55:17.853Z,17.43
2019-03-02T01:57:45.010Z,19.23
2019-03-02T02:00:23.891Z,21.13
2019-03-02T02:02:51.070Z,21.80
2019-03-02T02:05:18.211Z,25.23
2019-03-02T02:07:45.390Z,23.10
2019-03-02T02:10:14.251Z,23.90
2019-03-02T02:12:41.451Z,23.17
2019-03-02T02:15:13.029Z,24.87
2019-03-02T02:17:40.612Z,23.80
2019-03-02T02:20:14.621Z,23.50
2019-03-02T02:22:40.370Z,24.20
2019-03-02T02:25:11.399Z,22.50
2019-03-02T02:27:38.583Z,26.60
2019-03-02T02:30:24.433Z,25.93
2019-03-02T02:32:48.110Z,27.97
2019-03-02T02:35:15.509Z,29.60
2019-03-02T02:37:43.124Z,30.70
2019-03-02T02:40:12.469Z,28.57
2019-03-02T02:42:43.421Z,29.93
2019-03-02T02:45:15.160Z,30.77
2019-03-02T02:47:50.823Z,29.20
2019-03-02T02:50:29.382Z,30.77
2019-03-02T02:52:53.460Z,30.27
2019-03-02T02:55:20.539Z,28.53
2019-03-02T02:58:12.524Z,27.70
2019-03-02T03:00:36.554Z,28.33
2019-03-02T03:03:03.928Z,29.70
2019-03-02T03:05:31.030Z,32.57
2019-03-02T03:07:58.204Z,33.77
2019-03-02T03:10:36.452Z,31.00
2019-03-02T03:13:04.462Z,32.33
2019-03-02T03:15:38.524Z,34.97
2019-03-02T03:18:07.242Z,33.87
2019-03-02T03:20:34.421Z,35.87
2019-03-02T03:23:01.522Z,36.43
2019-03-02T03:25:28.610Z,36.37
2019-03-02T03:27:55.772Z,37.63
2019-03-02T03:30:33.736Z,37.60
2019-03-02T03:32:55.947Z,39.30
2019-03-02T03:35:21.349Z,39.70
2019-03-02T03:37:51.381Z,43.67
2019-03-02T03:40:20.258Z,39.67
2019-03-02T03:42:46.926Z,42.97
2019-03-02T03:45:15.336Z,44.00
2019-03-02T03:47:42.491Z,41.40
2019-03-02T03:50:13.883Z,41.17
2019-03-02T03:52:44.025Z,39.97
2019-03-02T03:55:10.527Z,40.77
2019-03-02T03:57:37.645Z,43.70
2019-03-02T04:00:11.709Z,46.10
2019-03-02T04:02:39.315Z,44.07
2019-03-02T04:05:08.553Z,48.13
2019-03-02T04:07:36.223Z,44.97
2019-03-02T04:10:07.175Z,50.00
2019-03-02T04:12:34.533Z,47.97
2019-03-02T04:15:03.098Z,49.63
2019-03-02T04:17:34.194Z,47.33
2019-03-02T04:19:59.507Z,52.93
2019-03-02T04:22:26.684Z,54.70
2019-03-02T04:24:53.728Z,54.63
2019-03-02T04:27:20.846Z,55.87
2019-03-02T04:29:50.466Z,53.47
2019-03-02T04:32:16.954Z,53.73
2019-03-02T04:34:44.055Z,58.67
2019-03-02T04:37:11.435Z,59.97
2019-03-02T04:39:38.734Z,56.63
2019-03-02T04:42:05.835Z,53.63
2019-03-02T04:44:32.956Z,59.60
2019-03-02T04:47:00.097Z,56.37
2019-03-02T04:49:27.247Z,54.20
2019-03-02T04:51:54.328Z,57.00
2019-03-02T04:54:21.414Z,54.47
2019-03-02T04:56:48.494Z,55.67
2019-03-02T04:59:18.614Z,55.17
2019-03-02T05:01:46.226Z,52.13
2019-03-02T05:04:13.695Z,53.87
2019-03-02T05:06:41.026Z,57.77
2019-03-02T05:09:08.194Z,55.03
2019-03-02T05:11:39.297Z,56.37
2019-03-02T05:14:05.535Z,54.70
2019-03-02T05:16:32.754Z,54.07
2019-03-02T05:18:59.949Z,56.40
2019-03-02T05:21:27.134Z,53.70
2019-03-02T05:23:54.294Z,54.13
2019-03-02T05:26:21.395Z,50.20
2019-03-02T05:28:48.554Z,52.63
2019-03-02T05:31:15.747Z,56.03
2019-03-02T05:33:42.913Z,53.80
2019-03-02T05:36:10.046Z,52.43
2019-03-02T05:38:37.234Z,54.03
2019-03-02T05:41:04.594Z,56.83
2019-03-02T05:43:31.687Z,55.33
2019-03-02T05:45:58.935Z,54.10
2019-03-02T05:48:26.055Z,58.90
2019-03-02T05:50:53.207Z,52.70
2019-03-02T05:53:20.269Z,57.07
2019-03-02T05:55:49.950Z,56.53
2019-03-02T05:58:17.148Z,53.93
2019-03-02T06:00:44.348Z,59.07
2019-03-02T06:03:11.507Z,56.47
2019-03-02T06:05:38.668Z,53.87
2019-03-02T06:08:05.788Z,56.83
2019-03-02T06:10:32.947Z,56.73
2019-03-02T06:13:00.087Z,55.03
2019-03-02T06:15:28.810Z,57.13
2019-03-02T06:17:56.127Z,56.80
2019-03-02T06:20:23.288Z,58.53
2019-03-02T06:22:52.296Z,56.77
2019-03-02T06:25:21.427Z,56.20
2019-03-02T06:27:49.137Z,56.23
2019-03-02T06:30:25.088Z,59.40
2019-03-02T06:32:52.169Z,59.30
2019-03-02T06:35:19.268Z,58.30
2019-03-02T06:37:46.470Z,55.13
2019-03-02T06:40:16.055Z,57.37
2019-03-02T06:42:45.830Z,60.00
2019-03-02T06:45:20.092Z,53.10
2019-03-02T06:47:47.747Z,55.30
2019-03-02T06:50:18.887Z,57.17
2019-03-02T06:52:46.077Z,56.27
2019-03-02T06:55:16.073Z,58.83
2019-03-02T06:57:46.211Z,54.90
2019-03-02T07:00:20.591Z,55.83
2019-03-02T07:02:47.948Z,52.87
2019-03-02T07:05:15.408Z,55.10
2019-03-02T07:07:42.567Z,56.50
2019-03-02T07:10:13.608Z,50.63
2019-03-02T07:12:41.739Z,49.53
2019-03-02T07:15:13.280Z,55.13
2019-03-02T07:18:01.907Z,52.00
2019-03-02T07:20:29.555Z,50.07
2019-03-02T07:22:56.727Z,52.80
2019-03-02T07:25:23.887Z,52.10
2019-03-02T07:27:51.001Z,51.90
2019-03-02T07:30:18.135Z,52.93
2019-03-02T07:32:45.274Z,47.07
2019-03-02T07:35:12.417Z,55.77
2019-03-02T07:37:40.668Z,54.50
2019-03-02T07:40:11.521Z,50.87
2019-03-02T07:42:38.735Z,52.30
2019-03-02T07:45:11.126Z,50.57
2019-03-02T07:47:38.208Z,53.47
2019-03-02T07:50:08.487Z,52.80
2019-03-02T07:52:35.648Z,48.37
2019-03-02T07:55:05.077Z,46.67
2019-03-02T07:57:32.207Z,52.13
2019-03-02T08:00:02.065Z,51.03
2019-03-02T08:02:29.631Z,48.83
2019-03-02T08:04:57.447Z,48.83
2019-03-02T08:07:24.489Z,55.03
2019-03-02T08:09:51.727Z,53.10
2019-03-02T08:12:20.820Z,49.10
2019-03-02T08:14:48.746Z,49.00
2019-03-02T08:17:15.886Z,48.10
2019-03-02T08:19:44.706Z,48.40
2019-03-02T08:22:12.094Z,47.17
2019-03-02T08:24:40.309Z,45.57
2019-03-02T08:27:10.290Z,45.77
2019-03-02T08:29:37.287Z,46.93
2019-03-02T08:32:04.347Z,49.40
2019-03-02T08:34:31.526Z,47.73
2019-03-02T08:36:58.646Z,45.37
2019-03-02T08:39:25.787Z,47.93
2019-03-02T08:41:53.101Z,47.43
2019-03-02T08:44:20.322Z,47.47
2019-03-02T08:46:47.466Z,44.87
2019-03-02T08:49:14.608Z,46.97
2019-03-02T08:51:41.768Z,46.63
2019-03-02T08:54:08.907Z,43.27
2019-03-02T08:56:36.011Z,41.20
2019-03-02T08:59:03.306Z,44.23
2019-03-02T09:01:30.509Z,45.30
2019-03-02T09:03:57.605Z,39.77
2019-03-02T09:06:24.763Z,41.73
2019-03-02T09:08:51.890Z,47.57
2019-03-02T09:11:19.087Z,43.07
2019-03-02T09:13:46.187Z,42.23
2019-03-02T09:16:13.367Z,40.97
2019-03-02T09:18:45.378Z,40.77
2019-03-02T09:21:12.397Z,38.30
2019-03-02T09:23:38.587Z,38.73
2019-03-02T09:26:05.665Z,36.97
2019-03-02T09:28:32.798Z,36.67
2019-03-02T09:31:02.071Z,40.53
2019-03-02T09:33:29.940Z,38.63
2019-03-02T09:35:57.826Z,37.27
2019-03-02T09:38:24.992Z,35.73
2019-03-02T09:40:52.141Z,38.87
2019-03-02T09:43:19.491Z,36.50
2019-03-02T09:45:48.054Z,38.80
2019-03-02T09:48:15.573Z,36.87
2019-03-02T09:50:42.752Z,35.87
2019-03-02T09:53:09.817Z,37.90
2019-03-02T09:55:36.911Z,39.67
2019-03-02T09:58:04.138Z,35.93
2019-03-02T10:00:32.992Z,35.37
2019-03-02T10:03:00.132Z,38.10
2019-03-02T10:05:27.251Z,38.50
2019-03-02T10:07:54.394Z,36.57
2019-03-02T10:10:25.224Z,34.17
2019-03-02T10:12:53.127Z,35.20
2019-03-02T10:15:31.370Z,32.00
2019-03-02T10:17:58.490Z,32.97
2019-03-02T10:20:25.618Z,32.90
2019-03-02T10:22:52.795Z,34.30
2019-03-02T10:25:19.891Z,34.33
2019-03-02T10:27:47.232Z,28.23
2019-03-02T10:30:25.906Z,30.00
2019-03-02T10:32:55.665Z,32.00
2019-03-02T10:35:21.419Z,30.90
2019-03-02T10:37:48.751Z,28.50
2019-03-02T10:40:19.914Z,29.47
2019-03-02T10:42:47.172Z,27.37
2019-03-02T10:45:19.334Z,31.47
2019-03-02T10:47:46.574Z,24.77
2019-03-02T10:50:26.804Z,28.23
2019-03-02T10:52:53.984Z,29.40
2019-03-02T10:55:22.846Z,30.27
2019-03-02T10:57:50.799Z,28.50
2019-03-02T11:00:25.629Z,29.33
2019-03-02T11:02:57.443Z,31.13
2019-03-02T11:05:29.132Z,33.37
2019-03-02T11:07:58.053Z,34.30
2019-03-02T11:10:27.032Z,29.03
2019-03-02T11:13:04.692Z,32.83
2019-03-02T11:15:33.585Z,29.10
2019-03-02T11:18:26.411Z,28.67
2019-03-02T11:20:58.926Z,29.90
2019-03-02T11:23:31.759Z,32.77
2019-03-02T11:26:18.726Z,34.33
2019-03-02T11:28:47.798Z,33.33
2019-03-02T11:31:25.558Z,33.70
2019-03-02T11:33:57.458Z,32.93
2019-03-02T11:36:41.725Z,34.27
2019-03-02T11:39:19.939Z,30.37
2019-03-02T11:41:54.977Z,31.07
2019-03-02T11:44:38.958Z,30.97
2019-03-02T11:47:08.119Z,33.53
2019-03-02T11:49:42.838Z,34.30
2019-03-02T11:52:14.514Z,31.53
2019-03-02T11:54:43.407Z,31.73
2019-03-02T11:57:12.359Z,32.80
2019-03-02T11:59:59.719Z,30.70
2019-03-02T12:02:43.929Z,30.87
2019-03-02T12:05:18.650Z,30.47
2019-03-02T12:07:56.397Z,30.40
2019-03-02T12:10:30.225Z,27.33
2019-03-02T12:13:03.726Z,30.40
2019-03-02T12:15:35.785Z,30.23
2019-03-02T12:18:21.703Z,28.27
2019-03-02T12:21:07.683Z,26.97
2019-03-02T12:23:51.767Z,28.77
2019-03-02T12:26:26.753Z,31.03
2019-03-02T12:28:58.844Z,32.23
2019-03-02T12:31:28.105Z,26.37
2019-03-02T12:33:58.758Z,27.33
2019-03-02T12:36:30.382Z,27.47
2019-03-02T12:38:59.409Z,27.37
2019-03-02T12:41:37.270Z,26.30
2019-03-02T12:44:09.309Z,26.00
2019-03-02T12:46:47.942Z,29.93
2019-03-02T12:49:35.065Z,26.40
2019-03-02T12:52:16.633Z,25.33
2019-03-02T12:54:59.060Z,24.93
2019-03-02T12:57:30.675Z,26.27
2019-03-02T13:00:02.530Z,27.40
2019-03-02T13:02:34.470Z,26.50
2019-03-02T13:05:06.278Z,26.50
2019-03-02T13:07:54.726Z,27.93
2019-03-02T13:10:29.518Z,29.33
2019-03-02T13:13:10.559Z,27.77
2019-03-02T13:15:48.374Z,25.93
2019-03-02T13:18:25.315Z,26.20
2019-03-02T13:21:00.963Z,23.80
2019-03-02T13:23:39.018Z,22.90
2019-03-02T13:26:15.331Z,23.70
2019-03-02T13:28:46.730Z,25.13
2019-03-02T13:31:18.693Z,22.50
2019-03-02T13:34:03.751Z,26.17
2019-03-02T13:36:32.712Z,20.47
2019-03-02T13:39:13.943Z,23.17
2019-03-02T13:41:47.909Z,24.87
2019-03-02T13:44:16.930Z,24.97
2019-03-02T13:46:51.570Z,23.23
2019-03-02T13:49:20.430Z,24.50
2019-03-02T13:52:07.516Z,25.03
2019-03-02T13:54:37.330Z,24.20
2019-03-02T13:57:14.751Z,28.17
2019-03-02T13:59:43.630Z,27.90
2019-03-02T14:02:12.592Z,28.50
2019-03-02T14:04:47.752Z,25.70
2019-03-02T14:07:51.732Z,25.87
2019-03-02T14:10:38.568Z,25.90
2019-03-02T14:13:16.286Z,26.23
2019-03-02T14:15:45.204Z,26.10
2019-03-02T14:18:17.575Z,27.40
2019-03-02T14:21:02.519Z,25.03
2019-03-02T14:23:34.493Z,26.57
2019-03-02T14:26:03.334Z,28.23
2019-03-02T14:28:50.637Z,29.80
2019-03-02T14:31:20.485Z,27.37
2019-03-02T14:34:07.172Z,29.27
2019-03-02T14:36:37.163Z,26.47
2019-03-02T14:39:08.319Z,27.77
2019-03-02T14:41:37.302Z,30.93
2019-03-02T14:44:11.999Z,28.10
2019-03-02T14:46:43.628Z,28.90
2019-03-02T14:49:15.431Z,28.10
2019-03-02T14:51:44.481Z,27.73
2019-03-02T14:54:13.371Z,30.00
2019-03-02T14:56:44.865Z,27.67
2019-03-02T14:59:29.714Z,26.33
2019-03-02T15:02:16.629Z,28.87
2019-03-02T15:04:56.504Z,30.53
2019-03-02T15:07:34.432Z,28.60
2019-03-02T15:10:09.206Z,30.37
2019-03-02T15:12:54.803Z,30.47
2019-03-02T15:15:40.551Z,26.93
2019-03-02T15:18:10.674Z,30.77
2019-03-02T15:20:39.789Z,29.07
2019-03-02T15:23:08.742Z,29.07
2019-03-02T15:25:42.071Z,29.57
2019-03-02T15:28:11.524Z,29.73
2019-03-02T15:30:49.608Z,28.43
2019-03-02T15:33:30.327Z,31.90
2019-03-02T15:35:58.695Z,30.80
2019-03-02T15:38:46.145Z,29.73
2019-03-02T15:41:15.089Z,30.20
2019-03-02T15:44:02.008Z,34.50
2019-03-02T15:46:39.552Z,27.20
2019-03-02T15:49:14.722Z,31.80
2019-03-02T15:51:46.351Z,31.13
2019-03-02T15:54:33.159Z,29.67
2019-03-02T15:57:14.237Z,30.53
2019-03-02T16:00:05.860Z,31.37
2019-03-02T16:02:53.244Z,32.53
2019-03-02T16:05:24.659Z,30.13
2019-03-02T16:07:56.663Z,28.50
2019-03-02T16:10:25.514Z,28.30
2019-03-02T16:12:54.847Z,28.50
2019-03-02T16:15:26.607Z,32.20
2019-03-02T16:18:01.558Z,32.87
2019-03-02T16:20:42.533Z,28.07
2019-03-02T16:23:25.594Z,29.53
2019-03-02T16:26:00.356Z,30.93
2019-03-02T16:28:32.179Z,35.27
2019-03-02T16:31:09.859Z,36.93
2019-03-02T16:33:50.749Z,32.70
2019-03-02T16:36:19.810Z,34.10
2019-03-02T16:39:06.792Z,34.83
2019-03-02T16:41:44.932Z,35.83
2019-03-02T16:44:19.890Z,32.00
2019-03-02T16:47:05.271Z,32.77
2019-03-02T16:49:36.891Z,32.33
2019-03-02T16:52:10.081Z,34.07
2019-03-02T16:54:56.802Z,32.60
2019-03-02T16:57:30.393Z,36.70
2019-03-02T17:00:10.109Z,35.50
2019-03-02T17:02:54.147Z,41.60
2019-03-02T17:05:28.393Z,36.53
2019-03-02T17:07:58.666Z,47.10
2019-03-02T17:10:27.978Z,51.67
2019-03-02T17:13:11.870Z,39.83
2019-03-02T17:15:58.837Z,34.87
2019-03-02T17:18:28.311Z,36.63
2019-03-02T17:21:00.251Z,33.73
2019-03-02T17:23:42.170Z,40.17
2019-03-02T17:26:21.311Z,37.37
2019-03-02T17:28:55.913Z,36.90
2019-03-02T17:31:24.972Z,40.00
2019-03-02T17:34:11.040Z,44.13
2019-03-02T17:36:48.993Z,43.37
2019-03-02T17:39:27.915Z,39.30
2019-03-02T17:42:03.078Z,47.93
2019-03-02T17:44:32.033Z,41.87
2019-03-02T17:47:07.071Z,37.63
2019-03-02T17:49:34.688Z,41.37
2019-03-02T17:55:07.634Z,41.60
2019-03-02T17:57:37.850Z,45.23
2019-03-02T18:00:28.854Z,38.00
2019-03-02T18:03:00.272Z,41.97
2019-03-02T18:05:43.919Z,38.07
2019-03-02T18:08:13.419Z,39.77
2019-03-02T18:10:55.127Z,40.20
2019-03-02T18:13:35.257Z,39.47
2019-03-02T18:16:00.343Z,41.40
2019-03-02T18:18:28.030Z,42.53
2019-03-02T18:20:57.150Z,40.83
2019-03-02T18:23:24.589Z,41.73
2019-03-02T18:25:51.948Z,51.10
2019-03-02T18:28:19.048Z,37.03
2019-03-02T18:30:46.187Z,40.73
2019-03-02T18:33:15.587Z,40.47
2019-03-02T18:35:42.747Z,42.87
2019-03-02T18:38:12.623Z,39.93
2019-03-02T18:40:40.260Z,41.73
2019-03-02T18:43:08.163Z,44.53
2019-03-02T18:45:39.580Z,40.97
2019-03-02T18:48:07.603Z,43.57
2019-03-02T18:50:36.547Z,44.60
2019-03-02T18:53:03.689Z,45.33
2019-03-02T18:55:30.828Z,47.73
2019-03-02T18:57:58.508Z,43.20
2019-03-02T19:00:27.548Z,39.63
2019-03-02T19:02:54.686Z,45.13
2019-03-02T19:05:30.895Z,37.80
2019-03-02T19:07:59.607Z,45.27
2019-03-02T19:10:26.987Z,43.73
2019-03-02T19:12:54.087Z,45.57
2019-03-02T19:15:22.121Z,44.63
2019-03-02T19:17:49.436Z,45.30
2019-03-02T19:20:16.656Z,46.77
2019-03-02T19:22:44.227Z,57.03
2019-03-02T19:25:12.969Z,58.93
2019-03-02T19:27:40.516Z,49.70
2019-03-02T19:30:17.111Z,52.43
2019-03-02T19:32:44.343Z,51.93
2019-03-02T19:35:11.698Z,53.47
2019-03-02T19:37:40.701Z,49.00
2019-03-02T19:40:18.682Z,51.50
2019-03-02T19:42:45.905Z,49.83
2019-03-02T19:45:13.388Z,47.23
2019-03-02T19:47:40.488Z,44.30
2019-03-02T19:50:11.882Z,47.77
2019-03-02T19:52:39.400Z,48.97
2019-03-02T19:55:10.100Z,50.40
2019-03-02T19:57:37.263Z,48.87
2019-03-02T20:00:21.228Z,49.63
2019-03-02T20:02:48.370Z,52.43
2019-03-02T20:05:15.523Z,50.13
2019-03-02T20:07:42.808Z,58.40
2019-03-02T20:10:13.249Z,71.07
2019-03-02T20:12:40.441Z,73.47
2019-03-02T20:15:12.234Z,67.87
2019-03-02T20:17:39.447Z,65.67
2019-03-02T20:20:15.550Z,67.20
2019-03-02T20:22:42.660Z,61.40
2019-03-02T20:25:17.522Z,70.70
2019-03-02T20:27:44.639Z,70.10
2019-03-02T20:30:20.759Z,71.80
2019-03-02T20:32:48.120Z,63.10
2019-03-02T20:35:24.961Z,69.10
2019-03-02T20:37:52.198Z,66.90
2019-03-02T20:40:28.588Z,67.43
2019-03-02T20:42:55.703Z,63.03
2019-03-02T20:45:22.794Z,65.10
2019-03-02T20:47:49.840Z,57.17
2019-03-02T20:50:21.227Z,62.37
2019-03-02T20:52:48.388Z,59.00
2019-03-02T20:55:16.728Z,60.87
2019-03-02T20:57:45.327Z,60.73
2019-03-02T21:00:28.307Z,55.50
2019-03-02T21:02:56.599Z,59.57
2019-03-02T21:05:25.287Z,55.13
2019-03-02T21:07:53.306Z,58.30
2019-03-02T21:10:28.239Z,55.57
2019-03-02T21:12:55.367Z,60.47
2019-03-02T21:15:31.717Z,61.77
2019-03-02T21:17:58.839Z,61.97
2019-03-02T21:20:26.259Z,51.60
2019-03-02T21:22:53.407Z,58.20
2019-03-02T21:25:20.479Z,53.57
2019-03-02T21:27:47.629Z,59.13
2019-03-02T21:30:19.060Z,53.67
2019-03-02T21:32:46.693Z,54.67
2019-03-02T21:35:15.319Z,54.23
2019-03-02T21:37:44.419Z,56.27
2019-03-02T21:40:27.327Z,55.33
2019-03-02T21:42:54.747Z,57.50
2019-03-02T21:45:30.342Z,55.30
2019-03-02T21:47:57.679Z,57.07
2019-03-02T21:50:42.490Z,57.53
2019-03-02T21:53:09.687Z,52.60
2019-03-02T21:55:36.960Z,56.23
2019-03-02T21:58:04.556Z,55.97
2019-03-02T22:00:32.276Z,53.53
2019-03-02T22:02:59.555Z,56.00
2019-03-02T22:05:27.014Z,52.73
2019-03-02T22:07:54.175Z,53.30
2019-03-02T22:10:49.247Z,51.33
2019-03-02T22:13:16.459Z,62.90
2019-03-02T22:15:43.574Z,57.53
2019-03-02T22:18:10.716Z,58.37
2019-03-02T22:20:37.934Z,57.77
2019-03-02T22:23:05.106Z,51.93
2019-03-02T22:25:32.254Z,58.73
2019-03-02T22:27:59.418Z,57.90
2019-03-02T22:30:27.706Z,61.47
2019-03-02T22:32:54.870Z,64.20
2019-03-02T22:35:41.706Z,61.53
2019-03-02T22:38:08.832Z,61.70
2019-03-02T22:40:36.025Z,57.60
2019-03-02T22:43:03.157Z,48.83
2019-03-02T22:45:30.426Z,49.37
2019-03-02T22:47:57.592Z,52.20
2019-03-02T22:50:32.305Z,45.87
2019-03-02T22:52:59.847Z,52.30
2019-03-02T22:55:27.059Z,54.63
2019-03-02T22:57:54.367Z,59.70
2019-03-02T23:00:45.328Z,55.43
2019-03-02T23:03:11.786Z,55.17
2019-03-02T23:05:38.969Z,54.93
2019-03-02T23:08:06.369Z,56.00
2019-03-02T23:10:33.466Z,50.37
2019-03-02T23:13:00.608Z,52.57
2019-03-02T23:15:27.850Z,55.83
2019-03-02T23:17:54.929Z,53.47
2019-03-02T23:20:22.041Z,51.27
2019-03-02T23:22:49.300Z,43.90
2019-03-02T23:25:16.593Z,43.57
2019-03-02T23:27:44.014Z,48.17
2019-03-02T23:30:19.253Z,48.17
2019-03-02T23:32:46.526Z,44.93
2019-03-02T23:35:14.129Z,47.33
2019-03-02T23:37:41.387Z,48.53
2019-03-02T23:40:14.568Z,42.20
2019-03-02T23:42:41.769Z,44.53
2019-03-02T23:45:14.448Z,43.40
2019-03-02T23:47:41.810Z,46.43
2019-03-02T23:50:10.708Z,48.57
2019-03-02T23:52:38.290Z,43.97
2019-03-02T23:55:08.949Z,47.03
2019-03-02T23:57:55.848Z,47.33
